Time;durP1;ratioP1;P1;durP2;ratioP2;P2;SDS_P1;SDS_P2;PMS_P1;PMS_P2;Temp;Humidity;BMP_temperature;BMP_pressure;BME280_temperature;BME280_humidity;BME280_pressure;Samples;Min_cycle;Max_cycle;Signal;HPM_P1;HPM_P2
2022/09/10 00:00:41;;;;;;;;;;;;;;;19.97;66.10;100485.03;1024425;29;603;-68
2022/09/10 00:01:32;;;;;;;;;;;;;;;19.99;66.01;100474.03;1024479;29;686;-68
2022/09/10 00:02:22;;;;;;;;;;;;;;;20.01;65.59;100472.00;1024371;29;598;-68
2022/09/10 00:03:13;;;;;;;;;;;;;;;20.01;66.07;100474.72;1024361;29;661;-68
2022/09/10 00:04:03;;;;;;;;;;;;;;;20.03;65.73;100488.91;1024315;29;745;-68
2022/09/10 00:04:54;;;;;;;;;;;;;;;20.00;65.66;100483.84;1024317;29;1955;-68
2022/09/10 00:05:45;;;;;;;;;;;;;;;20.00;65.61;100475.72;1025608;28;701;-68
2022/09/10 00:06:37;;;;;;;;;;;;;;;19.98;65.75;100481.31;1024956;28;678;-68
2022/09/10 00:07:28;;;;;;;;;;;;;;;20.00;65.64;100481.97;1024314;29;659;-68
2022/09/10 00:08:19;;;;;;;;;;;;;;;20.00;66.03;100484.69;1024338;28;631;-68
2022/09/10 00:09:09;;;;;;;;;;;;;;;20.01;66.10;100489.09;1025455;28;745;-67
2022/09/10 00:09:59;;;;;;;;;;;;;;;19.92;66.04;100478.41;1024412;28;701;-68
2022/09/10 00:10:50;;;;;;;;;;;;;;;19.96;65.99;100485.19;1024409;29;658;-68
2022/09/10 00:11:41;;;;;;;;;;;;;;;19.86;66.65;100484.53;1024388;28;761;-68
2022/09/10 00:12:31;;;;;;;;;;;;;;;19.85;66.46;100482.81;1025415;28;662;-68
2022/09/10 00:13:21;;;;;;;;;;;;;;;19.86;66.63;100484.53;1024297;29;714;-68
2022/09/10 00:14:13;;;;;;;;;;;;;;;19.83;66.29;100487.56;1024453;29;694;-68
2022/09/10 00:15:04;;;;;;;;;;;;;;;19.88;66.61;100483.34;1024461;28;666;-68
2022/09/10 00:15:54;;;;;;;;;;;;;;;19.86;66.24;100487.22;1024833;28;626;-68
2022/09/10 00:16:44;;;;;;;;;;;;;;;19.87;66.26;100481.66;1024347;29;643;-68
2022/09/10 00:17:36;;;;;;;;;;;;;;;19.88;66.73;100486.06;1024378;29;643;-68
2022/09/10 00:18:26;;;;;;;;;;;;;;;19.93;65.93;100482.81;1024880;28;623;-68
2022/09/10 00:19:17;;;;;;;;;;;;;;;19.94;66.78;100481.81;1024962;28;620;-68
2022/09/10 00:20:08;;;;;;;;;;;;;;;19.94;66.50;100481.81;1024277;29;589;-68
2022/09/10 00:20:58;;;;;;;;;;;;;;;19.98;66.07;100483.16;1024896;28;694;-68
2022/09/10 00:21:49;;;;;;;;;;;;;;;19.96;66.12;100482.47;1024276;28;648;-68
2022/09/10 00:22:40;;;;;;;;;;;;;;;19.98;66.10;100477.75;1024507;29;678;-68
2022/09/10 00:23:30;;;;;;;;;;;;;;;19.98;65.65;100477.75;1023951;29;551;-68
2022/09/10 00:24:21;;;;;;;;;;;;;;;20.00;66.02;100475.72;1024248;29;655;-68
2022/09/10 00:25:12;;;;;;;;;;;;;;;20.00;65.96;100476.56;1024263;29;750;-68
2022/09/10 00:26:02;;;;;;;;;;;;;;;19.98;65.97;100469.63;1024224;29;620;-69
2022/09/10 00:26:53;;;;;;;;;;;;;;;19.95;66.32;100478.09;1024267;29;620;-69
2022/09/10 00:27:43;;;;;;;;;;;;;;;19.97;66.25;100470.66;1024224;29;674;-68
2022/09/10 00:28:33;;;;;;;;;;;;;;;19.98;65.80;100475.03;1024232;29;672;-69
2022/09/10 00:29:24;;;;;;;;;;;;;;;20.00;65.87;100475.72;1024154;29;1436;-70
2022/09/10 00:30:14;;;;;;;;;;;;;;;20.00;66.14;100470.31;1024822;28;689;-70
2022/09/10 00:31:05;;;;;;;;;;;;;;;19.97;66.23;100471.50;1024339;29;722;-70
2022/09/10 00:31:55;;;;;;;;;;;;;;;19.99;66.30;100474.03;1024118;29;1416;-70
2022/09/10 00:32:51;;;;;;;;;;;;;;;19.99;65.99;100477.59;1024265;29;675;-70
2022/09/10 00:33:41;;;;;;;;;;;;;;;19.95;65.81;100473.53;1024804;28;686;-70
2022/09/10 00:34:32;;;;;;;;;;;;;;;19.95;65.82;100478.09;1024318;29;607;-70
2022/09/10 00:35:23;;;;;;;;;;;;;;;19.93;66.27;100470.13;1023789;29;663;-70
2022/09/10 00:36:13;;;;;;;;;;;;;;;19.95;66.28;100472.69;1024350;29;627;-70
2022/09/10 00:37:04;;;;;;;;;;;;;;;19.96;66.53;100474.38;1024278;29;643;-71
2022/09/10 00:37:55;;;;;;;;;;;;;;;19.95;66.19;100478.09;1024249;29;616;-71
2022/09/10 00:38:45;;;;;;;;;;;;;;;19.97;66.30;100481.47;1024183;29;627;-71
2022/09/10 00:39:36;;;;;;;;;;;;;;;19.98;66.59;100473.19;1024314;29;690;-71
2022/09/10 00:40:26;;;;;;;;;;;;;;;19.96;66.07;100479.78;1024263;29;591;-71
2022/09/10 00:41:17;;;;;;;;;;;;;;;19.90;66.44;100478.59;1024929;29;659;-71
2022/09/10 00:42:07;;;;;;;;;;;;;;;19.94;66.37;100487.22;1024382;29;685;-71
2022/09/10 00:42:57;;;;;;;;;;;;;;;19.90;66.44;100480.44;1024183;29;863;-71
2022/09/10 00:43:48;;;;;;;;;;;;;;;19.91;66.50;100487.53;1024276;29;625;-71
2022/09/10 00:44:38;;;;;;;;;;;;;;;19.92;66.07;100484.66;1024163;29;1898;-71
2022/09/10 00:45:29;;;;;;;;;;;;;;;19.95;66.53;100489.75;1024558;28;1093;-71
2022/09/10 00:46:19;;;;;;;;;;;;;;;19.96;66.24;100483.31;1024715;28;1140;-72
2022/09/10 00:47:10;;;;;;;;;;;;;;;19.99;66.46;100482.16;1023170;29;1143;-71
2022/09/10 00:48:00;;;;;;;;;;;;;;;19.97;65.83;100481.47;1024035;29;1093;-71
2022/09/10 00:48:51;;;;;;;;;;;;;;;19.99;66.47;100487.56;1024439;28;1085;-72
2022/09/10 00:49:42;;;;;;;;;;;;;;;19.97;66.08;100490.44;1023760;29;1081;-72
2022/09/10 00:50:32;;;;;;;;;;;;;;;19.97;66.47;100487.72;1024469;28;1153;-72
2022/09/10 00:51:22;;;;;;;;;;;;;;;19.97;66.35;100492.28;1022771;28;1125;-72
2022/09/10 00:52:13;;;;;;;;;;;;;;;19.99;66.03;100491.09;1023326;29;1094;-72
2022/09/10 00:53:04;;;;;;;;;;;;;;;19.97;66.11;100486.88;1023521;29;1052;-71
2022/09/10 00:53:55;;;;;;;;;;;;;;;19.98;65.96;100488.56;1023931;29;1140;-71
2022/09/10 00:54:45;;;;;;;;;;;;;;;19.91;66.80;100482.97;1023186;28;1164;-71
2022/09/10 00:55:37;;;;;;;;;;;;;;;19.93;66.85;100489.06;1024054;29;1077;-71
2022/09/10 00:56:27;;;;;;;;;;;;;;;19.95;66.46;100484.34;1023440;28;1085;-71
2022/09/10 00:57:18;;;;;;;;;;;;;;;19.95;66.34;100483.50;1024054;29;1132;-71
2022/09/10 00:58:09;;;;;;;;;;;;;;;19.97;65.98;100486.88;1023649;28;1073;-71
2022/09/10 00:58:59;;;;;;;;;;;;;;;19.97;66.54;100481.47;1023986;29;1198;-71
2022/09/10 00:59:50;;;;;;;;;;;;;;;19.96;66.06;100485.19;1024229;29;1108;-71
2022/09/10 01:00:40;;;;;;;;;;;;;;;19.93;66.03;100489.06;1024001;29;1116;-71
2022/09/10 01:01:32;;;;;;;;;;;;;;;19.98;66.33;100488.56;1023802;28;1109;-71
2022/09/10 01:02:22;;;;;;;;;;;;;;;19.96;66.04;100486.03;1021664;29;1074;-71
2022/09/10 01:03:14;;;;;;;;;;;;;;;19.96;66.27;100491.44;1024171;28;1080;-71
2022/09/10 01:04:05;;;;;;;;;;;;;;;19.94;66.64;100484.50;1023326;28;1128;-71
2022/09/10 01:04:57;;;;;;;;;;;;;;;19.95;66.23;100483.50;1024692;29;1987;-72
2022/09/10 01:05:47;;;;;;;;;;;;;;;19.94;66.03;100485.34;1023975;28;1113;-71
2022/09/10 01:06:38;;;;;;;;;;;;;;;19.94;66.13;100487.22;1024842;29;1152;-72
2022/09/10 01:07:28;;;;;;;;;;;;;;;19.93;66.30;100485.53;1024546;28;1143;-72
2022/09/10 01:08:18;;;;;;;;;;;;;;;19.92;65.98;100481.97;1026018;28;1131;-71
2022/09/10 01:09:09;;;;;;;;;;;;;;;19.86;66.42;100473.72;1023512;29;1171;-72
2022/09/10 01:10:00;;;;;;;;;;;;;;;19.91;66.42;100480.28;1024796;29;1133;-71
2022/09/10 01:10:50;;;;;;;;;;;;;;;19.87;66.29;100470.84;1024398;28;1152;-72
2022/09/10 01:11:41;;;;;;;;;;;;;;;19.92;66.51;100481.13;1025262;28;1251;-72
2022/09/10 01:12:31;;;;;;;;;;;;;;;19.91;66.18;100476.72;1025248;28;1085;-72
2022/09/10 01:13:22;;;;;;;;;;;;;;;19.93;66.38;100480.09;1025500;28;1101;-72
2022/09/10 01:14:12;;;;;;;;;;;;;;;19.93;66.00;100477.41;1024803;28;1034;-72
2022/09/10 01:15:04;;;;;;;;;;;;;;;19.94;66.09;100482.66;1024006;28;1238;-71
2022/09/10 01:15:54;;;;;;;;;;;;;;;19.94;66.49;100470.97;1024399;29;1108;-72
2022/09/10 01:16:45;;;;;;;;;;;;;;;19.94;66.00;100479.09;1025299;28;1351;-72
2022/09/10 01:17:35;;;;;;;;;;;;;;;19.91;65.95;100474.88;1024518;28;1232;-71
2022/09/10 01:18:27;;;;;;;;;;;;;;;19.94;66.17;100476.41;1024604;29;1124;-71
2022/09/10 01:19:17;;;;;;;;;;;;;;;19.94;66.00;100477.25;1024740;28;1178;-72
2022/09/10 01:20:07;;;;;;;;;;;;;;;19.93;66.93;100472.00;1023534;28;1154;-72
2022/09/10 01:20:58;;;;;;;;;;;;;;;19.94;66.93;100481.81;1025387;28;1093;-72
2022/09/10 01:21:48;;;;;;;;;;;;;;;19.94;66.39;100471.84;1024503;29;1124;-72
2022/09/10 01:22:39;;;;;;;;;;;;;;;19.94;66.49;100473.69;1024546;28;1152;-72
2022/09/10 01:23:30;;;;;;;;;;;;;;;19.95;66.81;100472.69;1024815;28;1063;-72
2022/09/10 01:24:20;;;;;;;;;;;;;;;19.94;66.52;100470.97;1025868;28;1304;-71
2022/09/10 01:25:11;;;;;;;;;;;;;;;19.95;66.27;100478.09;1024399;29;1179;-72
2022/09/10 01:26:02;;;;;;;;;;;;;;;19.96;66.46;100474.38;1024925;28;1255;-72
2022/09/10 01:26:53;;;;;;;;;;;;;;;19.96;66.52;100477.91;1025157;28;1202;-72
2022/09/10 01:27:44;;;;;;;;;;;;;;;19.95;66.46;100476.22;1024846;29;1172;-72
2022/09/10 01:28:34;;;;;;;;;;;;;;;19.96;66.28;100475.22;1024547;29;1255;-71
2022/09/10 01:29:25;;;;;;;;;;;;;;;19.98;66.50;100475.03;1024687;29;1230;-72
2022/09/10 01:30:16;;;;;;;;;;;;;;;19.97;65.99;100486.88;1024784;29;1064;-72
2022/09/10 01:31:10;;;;;;;;;;;;;;;19.96;66.41;100474.38;1024593;29;1118;-72
2022/09/10 01:32:00;;;;;;;;;;;;;;;19.91;66.12;100476.72;1024638;29;1113;-72
2022/09/10 01:32:50;;;;;;;;;;;;;;;19.93;66.56;100474.69;1025532;28;1209;-72
2022/09/10 01:33:41;;;;;;;;;;;;;;;19.93;66.64;100480.09;1025743;28;1234;-72
2022/09/10 01:34:32;;;;;;;;;;;;;;;19.91;66.15;100477.56;1024755;29;1100;-72
2022/09/10 01:35:22;;;;;;;;;;;;;;;19.90;66.80;100480.44;1024760;29;1088;-72
2022/09/10 01:36:13;;;;;;;;;;;;;;;19.84;66.84;100475.72;1025283;28;1156;-72
2022/09/10 01:37:03;;;;;;;;;;;;;;;19.88;66.82;100477.09;1024647;29;1226;-71
2022/09/10 01:37:54;;;;;;;;;;;;;;;19.88;66.15;100479.78;1024584;29;1164;-72
2022/09/10 01:38:44;;;;;;;;;;;;;;;19.86;66.59;100484.53;1024841;29;1144;-72
2022/09/10 01:39:34;;;;;;;;;;;;;;;19.90;66.57;100483.16;1024678;29;1128;-72
2022/09/10 01:40:28;;;;;;;;;;;;;;;19.92;66.33;100483.81;1024875;29;1379;-71
2022/09/10 01:41:19;;;;;;;;;;;;;;;19.93;66.37;100485.53;1024466;29;1191;-71
2022/09/10 01:42:09;;;;;;;;;;;;;;;19.93;66.13;100480.09;1024620;29;1112;-72
2022/09/10 01:43:00;;;;;;;;;;;;;;;19.93;66.19;100486.38;1025717;28;1261;-72
2022/09/10 01:43:50;;;;;;;;;;;;;;;19.95;66.53;100484.34;1025205;28;1105;-72
2022/09/10 01:44:41;;;;;;;;;;;;;;;19.95;66.36;100488.91;1025681;28;1952;-72
2022/09/10 01:45:31;;;;;;;;;;;;;;;19.95;65.89;100483.50;1024749;29;1300;-72
2022/09/10 01:46:22;;;;;;;;;;;;;;;19.96;65.94;100487.91;1025855;28;1151;-72
2022/09/10 01:47:13;;;;;;;;;;;;;;;19.95;65.87;100488.91;1024168;29;1143;-72
2022/09/10 01:48:05;;;;;;;;;;;;;;;19.92;66.10;100483.81;1025260;28;1072;-72
2022/09/10 01:48:55;;;;;;;;;;;;;;;19.93;66.47;100489.06;1025097;28;1208;-72
2022/09/10 01:49:45;;;;;;;;;;;;;;;19.92;66.19;100486.53;1024587;29;1092;-72
2022/09/10 01:50:37;;;;;;;;;;;;;;;19.92;66.34;100484.66;1025495;28;1144;-72
2022/09/10 01:51:28;;;;;;;;;;;;;;;19.95;66.05;100483.50;1024608;29;1073;-72
2022/09/10 01:52:21;;;;;;;;;;;;;;;19.93;66.27;100486.38;1025289;28;1193;-72
2022/09/10 01:53:12;;;;;;;;;;;;;;;19.92;65.90;100478.41;1025286;29;1021;-72
2022/09/10 01:54:02;;;;;;;;;;;;;;;19.92;66.21;100481.97;1024713;29;1068;-72
2022/09/10 01:54:53;;;;;;;;;;;;;;;19.91;66.09;100480.28;1025685;28;1140;-72
2022/09/10 01:55:44;;;;;;;;;;;;;;;19.91;66.40;100482.13;1025152;28;1332;-72
2022/09/10 01:56:34;;;;;;;;;;;;;;;19.90;66.24;100480.44;1025136;28;1171;-72
2022/09/10 01:57:26;;;;;;;;;;;;;;;19.88;66.40;100482.50;1025814;28;1072;-72
2022/09/10 01:58:17;;;;;;;;;;;;;;;19.86;66.34;100473.72;1024526;29;1117;-71
2022/09/10 01:59:08;;;;;;;;;;;;;;;19.83;66.37;100476.75;1024659;29;1163;-71
2022/09/10 01:59:58;;;;;;;;;;;;;;;19.84;66.76;100478.44;1024641;29;1104;-71
2022/09/10 02:00:49;;;;;;;;;;;;;;;19.81;66.37;100476.91;1025184;28;1105;-71
2022/09/10 02:01:39;;;;;;;;;;;;;;;19.84;66.00;100479.28;1025183;28;1124;-72
2022/09/10 02:02:30;;;;;;;;;;;;;;;19.85;66.00;100478.25;1025713;28;1163;-71
2022/09/10 02:03:21;;;;;;;;;;;;;;;19.86;66.44;100476.41;1024646;29;1144;-72
2022/09/10 02:04:13;;;;;;;;;;;;;;;19.86;65.81;100479.13;1025163;28;1109;-72
2022/09/10 02:05:05;;;;;;;;;;;;;;;19.87;66.27;100475.41;1022760;29;1947;-72
2022/09/10 02:05:55;;;;;;;;;;;;;;;19.90;65.95;100475.03;1025213;29;1144;-71
2022/09/10 02:06:46;;;;;;;;;;;;;;;19.88;65.85;100477.09;1024224;28;1097;-71
2022/09/10 02:07:38;;;;;;;;;;;;;;;19.87;65.62;100480.81;1024516;29;1116;-71
2022/09/10 02:08:29;;;;;;;;;;;;;;;19.86;65.88;100473.72;1024042;28;1076;-72
2022/09/10 02:09:20;;;;;;;;;;;;;;;19.86;66.44;100474.56;1025030;29;1120;-71
2022/09/10 02:10:10;;;;;;;;;;;;;;;19.84;66.21;100476.56;1023601;29;1155;-71
2022/09/10 02:11:04;;;;;;;;;;;;;;;19.83;65.90;100469.47;1024563;29;1140;-71
2022/09/10 02:11:55;;;;;;;;;;;;;;;19.84;66.46;100473.88;1024732;28;1180;-71
2022/09/10 02:12:46;;;;;;;;;;;;;;;19.86;66.45;100479.13;1024168;28;1093;-71
2022/09/10 02:13:36;;;;;;;;;;;;;;;19.86;65.95;100471.00;1024687;29;1171;-72
2022/09/10 02:14:26;;;;;;;;;;;;;;;19.86;65.64;100474.56;1024282;28;1124;-71
2022/09/10 02:15:17;;;;;;;;;;;;;;;19.87;66.05;100475.41;1025209;28;622;-72
2022/09/10 02:16:08;;;;;;;;;;;;;;;19.87;65.73;100475.41;1025056;28;1148;-72
2022/09/10 02:16:58;;;;;;;;;;;;;;;19.85;65.73;100474.72;1025195;29;1085;-71
2022/09/10 02:17:48;;;;;;;;;;;;;;;19.85;65.45;100475.56;1024544;29;1092;-72
2022/09/10 02:18:39;;;;;;;;;;;;;;;19.88;65.88;100477.09;1023807;28;1057;-71
2022/09/10 02:19:30;;;;;;;;;;;;;;;19.87;66.35;100470.84;1024627;29;1097;-71
2022/09/10 02:20:20;;;;;;;;;;;;;;;19.86;66.14;100476.41;1023961;28;1176;-71
2022/09/10 02:21:11;;;;;;;;;;;;;;;19.86;66.12;100474.56;1024576;29;1219;-71
2022/09/10 02:22:01;;;;;;;;;;;;;;;19.85;65.84;100477.41;1025172;28;1188;-71
2022/09/10 02:22:52;;;;;;;;;;;;;;;19.85;65.83;100474.72;1024492;29;1089;-71
2022/09/10 02:23:43;;;;;;;;;;;;;;;19.85;65.76;100472.84;1024125;28;1105;-71
2022/09/10 02:24:33;;;;;;;;;;;;;;;19.82;65.62;100473.19;1024692;29;1218;-72
2022/09/10 02:25:23;;;;;;;;;;;;;;;19.81;65.70;100476.06;1024502;28;1105;-71
2022/09/10 02:26:14;;;;;;;;;;;;;;;19.81;66.18;100476.06;1024671;29;1124;-71
2022/09/10 02:27:05;;;;;;;;;;;;;;;19.81;65.76;100471.50;1022364;28;773;-72
2022/09/10 02:27:55;;;;;;;;;;;;;;;19.82;66.19;100472.34;1021476;28;687;-71
2022/09/10 02:28:48;;;;;;;;;;;;;;;19.84;66.03;100473.03;1022810;28;1427;-71
2022/09/10 02:29:38;;;;;;;;;;;;;;;19.83;66.37;100471.34;1025247;28;653;-72
2022/09/10 02:30:29;;;;;;;;;;;;;;;19.81;65.90;100471.50;1025245;28;666;-72
2022/09/10 02:31:19;;;;;;;;;;;;;;;19.82;66.25;100469.63;1025104;28;646;-72
2022/09/10 02:32:10;;;;;;;;;;;;;;;19.82;66.30;100470.47;1024957;28;623;-72
2022/09/10 02:33:00;;;;;;;;;;;;;;;19.80;65.75;100471.66;1025250;28;675;-72
2022/09/10 02:33:50;;;;;;;;;;;;;;;19.80;65.99;100477.06;1025166;28;655;-72
2022/09/10 02:34:41;;;;;;;;;;;;;;;19.83;65.91;100474.03;1025240;29;666;-71
2022/09/10 02:35:31;;;;;;;;;;;;;;;19.82;66.38;100472.34;1025156;28;662;-71
2022/09/10 02:36:24;;;;;;;;;;;;;;;19.80;66.09;100468.97;1025207;28;628;-71
2022/09/10 02:37:15;;;;;;;;;;;;;;;19.81;66.08;100471.50;1024666;29;705;-71
2022/09/10 02:38:07;;;;;;;;;;;;;;;19.80;66.07;100472.50;1025213;28;662;-71
2022/09/10 02:38:57;;;;;;;;;;;;;;;19.81;65.80;100478.75;1024283;29;667;-71
2022/09/10 02:39:48;;;;;;;;;;;;;;;19.79;65.73;100478.09;1024806;28;683;-71
2022/09/10 02:40:38;;;;;;;;;;;;;;;19.81;66.03;100478.75;1025254;29;788;-72
2022/09/10 02:41:32;;;;;;;;;;;;;;;19.80;65.86;100477.06;1025122;28;635;-72
2022/09/10 02:42:24;;;;;;;;;;;;;;;19.82;66.23;100480.44;1024647;29;603;-71
2022/09/10 02:43:14;;;;;;;;;;;;;;;19.81;66.11;100476.06;1024723;29;694;-71
2022/09/10 02:44:04;;;;;;;;;;;;;;;19.81;65.67;100482.31;1025209;28;590;-71
2022/09/10 02:44:55;;;;;;;;;;;;;;;19.78;66.19;100477.25;1025165;29;1894;-71
2022/09/10 02:45:45;;;;;;;;;;;;;;;19.75;65.84;100477.56;1024646;28;592;-71
2022/09/10 02:46:37;;;;;;;;;;;;;;;19.79;66.15;100476.22;1025250;28;658;-71
2022/09/10 02:47:28;;;;;;;;;;;;;;;19.76;66.17;100474.69;1024698;29;701;-71
2022/09/10 02:48:20;;;;;;;;;;;;;;;19.79;65.93;100478.09;1024691;29;632;-71
2022/09/10 02:49:10;;;;;;;;;;;;;;;19.79;65.98;100475.38;1024507;29;750;-71
2022/09/10 02:50:01;;;;;;;;;;;;;;;19.81;66.05;100476.06;1025108;29;749;-71
2022/09/10 02:50:51;;;;;;;;;;;;;;;19.81;66.01;100466.09;1025175;28;633;-71
2022/09/10 02:51:43;;;;;;;;;;;;;;;19.81;65.74;100476.06;1025170;28;678;-71
2022/09/10 02:52:33;;;;;;;;;;;;;;;19.81;66.23;100471.50;1024618;29;628;-71
2022/09/10 02:53:24;;;;;;;;;;;;;;;19.81;65.90;100474.19;1025184;28;635;-70
2022/09/10 02:54:15;;;;;;;;;;;;;;;19.79;65.98;100467.28;1025627;28;583;-70
2022/09/10 02:55:05;;;;;;;;;;;;;;;19.78;66.20;100471.81;1025171;28;733;-70
2022/09/10 02:55:56;;;;;;;;;;;;;;;19.79;65.99;100472.69;1024076;29;638;-71
2022/09/10 02:56:48;;;;;;;;;;;;;;;19.76;65.86;100466.59;1024573;29;701;-70
2022/09/10 02:57:39;;;;;;;;;;;;;;;19.76;66.52;100471.16;1024022;29;767;-72
2022/09/10 02:58:32;;;;;;;;;;;;;;;19.77;66.37;100470.13;1024123;29;631;-70
2022/09/10 02:59:23;;;;;;;;;;;;;;;19.78;66.34;100466.41;1024118;29;641;-70
2022/09/10 03:00:14;;;;;;;;;;;;;;;19.77;66.03;100476.38;1024107;29;658;-70
2022/09/10 03:01:04;;;;;;;;;;;;;;;19.79;66.00;100467.28;1024688;29;650;-70
2022/09/10 03:01:55;;;;;;;;;;;;;;;19.77;66.22;100465.56;1024562;29;619;-71
2022/09/10 03:02:46;;;;;;;;;;;;;;;19.78;65.46;100466.41;1024698;29;657;-71
2022/09/10 03:03:38;;;;;;;;;;;;;;;19.77;65.83;100462.03;1025208;28;806;-70
2022/09/10 03:04:28;;;;;;;;;;;;;;;19.79;65.73;100464.56;1024615;29;573;-70
2022/09/10 03:05:18;;;;;;;;;;;;;;;19.79;65.66;100461.84;1024541;29;642;-70
2022/09/10 03:06:09;;;;;;;;;;;;;;;19.80;65.74;100463.56;1024585;28;701;-70
2022/09/10 03:06:59;;;;;;;;;;;;;;;19.80;65.58;100469.81;1024728;29;606;-70
2022/09/10 03:07:50;;;;;;;;;;;;;;;19.79;65.67;100461.84;1024626;29;627;-70
2022/09/10 03:08:40;;;;;;;;;;;;;;;19.77;65.79;100460.16;1024677;29;623;-72
2022/09/10 03:09:30;;;;;;;;;;;;;;;19.77;65.96;100465.56;1024548;29;625;-71
2022/09/10 03:10:22;;;;;;;;;;;;;;;19.77;65.56;100465.56;1025220;28;1116;-71
2022/09/10 03:11:15;;;;;;;;;;;;;;;19.79;66.02;100467.28;1027840;28;834;-71
2022/09/10 03:12:05;;;;;;;;;;;;;;;19.79;65.59;100465.41;1028982;28;637;-70
2022/09/10 03:12:56;;;;;;;;;;;;;;;19.77;66.00;100465.56;1028994;28;713;-71
2022/09/10 03:13:46;;;;;;;;;;;;;;;19.76;65.61;100458.47;1029070;28;689;-71
2022/09/10 03:14:37;;;;;;;;;;;;;;;19.77;65.80;100462.03;1028709;28;607;-71
2022/09/10 03:15:27;;;;;;;;;;;;;;;19.75;66.43;100458.63;1029050;28;689;-71
2022/09/10 03:16:17;;;;;;;;;;;;;;;19.76;66.29;100454.91;1029012;28;686;-71
2022/09/10 03:17:08;;;;;;;;;;;;;;;19.72;65.66;100456.25;1028062;28;729;-71
2022/09/10 03:17:58;;;;;;;;;;;;;;;19.74;66.07;100455.09;1028459;28;622;-71
2022/09/10 03:18:50;;;;;;;;;;;;;;;19.76;65.75;100460.34;1028970;28;778;-72
2022/09/10 03:19:41;;;;;;;;;;;;;;;19.76;66.13;100455.78;1029045;28;595;-72
2022/09/10 03:20:31;;;;;;;;;;;;;;;19.76;66.05;100454.91;1029099;28;670;-70
2022/09/10 03:21:23;;;;;;;;;;;;;;;19.76;66.28;100455.78;1028962;28;674;-70
2022/09/10 03:22:14;;;;;;;;;;;;;;;19.76;66.17;100461.19;1028987;28;626;-70
2022/09/10 03:23:04;;;;;;;;;;;;;;;19.74;65.89;100455.09;1028942;28;651;-70
2022/09/10 03:23:55;;;;;;;;;;;;;;;19.74;66.24;100456.94;1029044;28;638;-70
2022/09/10 03:24:46;;;;;;;;;;;;;;;19.75;65.87;100455.94;1029069;28;1914;-70
2022/09/10 03:25:36;;;;;;;;;;;;;;;19.75;65.78;100454.06;1029034;28;713;-71
2022/09/10 03:26:26;;;;;;;;;;;;;;;19.73;65.96;100453.41;1028812;28;623;-71
2022/09/10 03:27:17;;;;;;;;;;;;;;;19.73;66.16;100452.56;1027826;28;691;-71
2022/09/10 03:28:09;;;;;;;;;;;;;;;19.73;66.25;100457.97;1029009;28;630;-71
2022/09/10 03:29:00;;;;;;;;;;;;;;;19.73;66.27;100453.41;1023984;29;678;-71
2022/09/10 03:29:50;;;;;;;;;;;;;;;19.75;66.32;100456.78;1025000;29;618;-71
2022/09/10 03:30:41;;;;;;;;;;;;;;;19.74;66.25;100452.38;1025054;29;659;-71
2022/09/10 03:31:31;;;;;;;;;;;;;;;19.75;66.20;100453.22;1025037;28;630;-71
2022/09/10 03:32:21;;;;;;;;;;;;;;;19.74;66.06;100455.09;1024968;28;674;-71
2022/09/10 03:33:13;;;;;;;;;;;;;;;19.74;66.02;100454.25;1025004;29;603;-71
2022/09/10 03:34:05;;;;;;;;;;;;;;;19.73;66.10;100464.22;1024946;28;670;-71
2022/09/10 03:34:55;;;;;;;;;;;;;;;19.74;66.00;100460.50;1025015;28;760;-71
2022/09/10 03:35:45;;;;;;;;;;;;;;;19.71;65.82;100458.13;1024940;28;635;-71
2022/09/10 03:36:36;;;;;;;;;;;;;;;19.74;66.12;100460.50;1025007;28;655;-72
2022/09/10 03:37:27;;;;;;;;;;;;;;;19.73;66.05;100456.09;1024991;28;666;-71
2022/09/10 03:38:17;;;;;;;;;;;;;;;19.73;66.32;100455.25;1024973;28;657;-71
2022/09/10 03:39:08;;;;;;;;;;;;;;;19.74;65.99;100459.66;1024889;28;642;-72
2022/09/10 03:39:59;;;;;;;;;;;;;;;19.72;66.11;100449.00;1024914;28;714;-71
2022/09/10 03:40:49;;;;;;;;;;;;;;;19.73;66.14;100453.41;1025031;29;642;-71
2022/09/10 03:41:39;;;;;;;;;;;;;;;19.73;66.46;100448.00;1024992;28;572;-71
2022/09/10 03:42:30;;;;;;;;;;;;;;;19.74;66.23;100443.44;1024926;28;750;-71
2022/09/10 03:43:21;;;;;;;;;;;;;;;19.73;66.12;100449.84;1024942;29;682;-71
2022/09/10 03:44:11;;;;;;;;;;;;;;;19.74;66.10;100443.44;1024883;28;679;-71
2022/09/10 03:45:02;;;;;;;;;;;;;;;19.73;66.07;100452.56;1024890;28;1898;-71
2022/09/10 03:45:52;;;;;;;;;;;;;;;19.72;66.13;100457.13;1024963;29;630;-71
2022/09/10 03:46:44;;;;;;;;;;;;;;;19.71;66.18;100444.59;1024924;28;561;-71
2022/09/10 03:47:38;;;;;;;;;;;;;;;19.71;66.35;100451.88;1024956;29;675;-71
2022/09/10 03:48:28;;;;;;;;;;;;;;;19.68;66.37;100444.13;1024889;28;705;-72
2022/09/10 03:49:19;;;;;;;;;;;;;;;19.69;66.37;100451.22;1028973;28;630;-71
2022/09/10 03:50:09;;;;;;;;;;;;;;;19.69;66.34;100449.38;1028848;28;972;-71
2022/09/10 03:51:00;;;;;;;;;;;;;;;19.69;66.27;100446.66;1029058;28;662;-71
2022/09/10 03:51:50;;;;;;;;;;;;;;;19.68;66.70;100455.78;1028962;28;701;-71
2022/09/10 03:52:41;;;;;;;;;;;;;;;19.69;66.63;100449.38;1028755;28;1238;-70
2022/09/10 03:53:31;;;;;;;;;;;;;;;19.70;66.46;100445.66;1028391;28;647;-71
2022/09/10 03:54:22;;;;;;;;;;;;;;;19.68;66.21;100442.25;1028896;28;607;-71
2022/09/10 03:55:12;;;;;;;;;;;;;;;19.69;66.50;100449.38;1028972;28;646;-71
2022/09/10 03:56:02;;;;;;;;;;;;;;;19.67;66.57;100448.69;1029023;28;628;-70
2022/09/10 03:56:53;;;;;;;;;;;;;;;19.69;66.05;100453.94;1028305;28;652;-70
2022/09/10 03:57:44;;;;;;;;;;;;;;;19.70;66.24;100450.22;1028930;28;638;-70
2022/09/10 03:58:34;;;;;;;;;;;;;;;19.68;66.71;100444.97;1028228;28;583;-70
2022/09/10 03:59:25;;;;;;;;;;;;;;;19.67;66.46;100445.97;1028924;28;1085;-69
2022/09/10 04:00:16;;;;;;;;;;;;;;;19.66;65.93;100444.28;1024551;29;666;-70
2022/09/10 04:01:07;;;;;;;;;;;;;;;19.67;66.76;100448.69;1024593;28;630;-69
2022/09/10 04:01:57;;;;;;;;;;;;;;;19.67;66.46;100453.25;1028384;28;626;-70
2022/09/10 04:02:48;;;;;;;;;;;;;;;19.66;66.59;100441.59;1028172;28;669;-69
2022/09/10 04:03:39;;;;;;;;;;;;;;;19.66;66.43;100444.28;1028396;28;682;-70
2022/09/10 04:04:30;;;;;;;;;;;;;;;19.68;66.68;100442.25;1028316;28;615;-70
2022/09/10 04:05:21;;;;;;;;;;;;;;;19.68;66.30;100444.13;1028323;28;670;-70
2022/09/10 04:06:11;;;;;;;;;;;;;;;19.68;66.50;100444.97;1028370;28;710;-69
2022/09/10 04:07:02;;;;;;;;;;;;;;;19.67;66.19;100448.69;1028232;28;570;-69
2022/09/10 04:07:53;;;;;;;;;;;;;;;19.67;66.70;100443.28;1028856;28;675;-69
2022/09/10 04:08:43;;;;;;;;;;;;;;;19.67;66.20;100447.84;1028381;28;622;-70
2022/09/10 04:09:34;;;;;;;;;;;;;;;19.69;66.59;100445.81;1028300;28;690;-70
2022/09/10 04:10:25;;;;;;;;;;;;;;;19.69;66.28;100443.97;1028080;28;1135;-70
2022/09/10 04:11:15;;;;;;;;;;;;;;;19.68;66.38;100450.38;1024589;28;729;-69
2022/09/10 04:12:06;;;;;;;;;;;;;;;19.68;66.09;100444.97;1024578;28;635;-69
2022/09/10 04:12:56;;;;;;;;;;;;;;;19.69;66.45;100443.09;1028291;28;635;-67
2022/09/10 04:13:47;;;;;;;;;;;;;;;19.68;66.23;100441.41;1028818;28;690;-69
2022/09/10 04:14:38;;;;;;;;;;;;;;;19.66;66.71;100449.69;1028304;28;663;-70
2022/09/10 04:15:28;;;;;;;;;;;;;;;19.66;66.61;100447.00;1028314;28;658;-70
2022/09/10 04:16:20;;;;;;;;;;;;;;;19.65;66.31;100445.31;1028852;28;691;-70
2022/09/10 04:17:11;;;;;;;;;;;;;;;19.67;66.32;100443.28;1028419;28;698;-70
2022/09/10 04:18:01;;;;;;;;;;;;;;;19.70;66.62;100451.06;1028276;28;608;-70
2022/09/10 04:18:53;;;;;;;;;;;;;;;19.72;66.68;100450.84;1027608;28;1424;-70
2022/09/10 04:19:43;;;;;;;;;;;;;;;19.72;66.08;100448.16;1024264;29;662;-70
2022/09/10 04:20:34;;;;;;;;;;;;;;;19.69;66.43;100449.38;1026052;28;594;-70
2022/09/10 04:21:24;;;;;;;;;;;;;;;19.71;66.08;100447.31;1025887;28;791;-71
2022/09/10 04:22:14;;;;;;;;;;;;;;;19.72;65.79;100445.44;1025893;28;644;-70
2022/09/10 04:23:05;;;;;;;;;;;;;;;19.72;65.85;100445.44;1026024;28;678;-70
2022/09/10 04:23:55;;;;;;;;;;;;;;;19.71;66.27;100455.41;1025758;28;670;-71
2022/09/10 04:24:46;;;;;;;;;;;;;;;19.71;66.66;100452.72;1025991;28;1914;-71
2022/09/10 04:25:36;;;;;;;;;;;;;;;19.71;66.60;100443.75;1025788;28;634;-70
2022/09/10 04:26:27;;;;;;;;;;;;;;;19.72;66.41;100445.44;1026060;28;693;-71